Time;durP1;ratioP1;P1;durP2;ratioP2;P2;SDS_P1;SDS_P2;PMS_P1;PMS_P2;Temp;Humidity;BMP_temperature;BMP_pressure;BME280_temperature;BME280_humidity;BME280_pressure;Samples;Min_cycle;Max_cycle;Signal;HPM_P1;HPM_P2
2023/05/10 00:00:01;;;;;;;0.80;0.60;;;;;;;28.06;37.27;99276.69;7402064;19;20070;-63
2023/05/10 00:02:27;;;;;;;2.50;0.90;;;;;;;27.91;37.15;99271.34;7399210;19;21163;-63
2023/05/10 00:04:53;;;;;;;1.23;0.85;;;;;;;27.85;37.46;99279.50;7397583;19;20363;-60
2023/05/10 00:07:19;;;;;;;1.85;1.75;;;;;;;27.63;37.47;99270.13;7398904;19;20403;-61
2023/05/10 00:09:45;;;;;;;0.43;0.28;;;;;;;27.50;37.26;99272.72;7398475;19;20007;-60
2023/05/10 00:12:12;;;;;;;7.78;1.33;;;;;;;27.58;37.57;99282.63;7402712;19;20167;-60
2023/05/10 00:14:38;;;;;;;2.28;0.63;;;;;;;27.56;37.40;99276.00;7398430;19;20343;-61
2023/05/10 00:17:04;;;;;;;0.40;0.40;;;;;;;27.67;37.26;99275.38;7400272;19;20458;-61
2023/05/10 00:19:31;;;;;;;0.47;0.47;;;;;;;27.86;36.92;99281.00;7397556;19;20010;-61
2023/05/10 00:21:57;;;;;;;0.57;0.47;;;;;;;27.86;36.89;99275.28;7397951;19;20359;-61
2023/05/10 00:24:23;;;;;;;4.43;1.05;;;;;;;27.90;36.68;99277.66;7397982;19;20018;-60
2023/05/10 00:26:49;;;;;;;1.10;1.00;;;;;;;26.40;38.60;99277.47;7398669;19;20011;-60
2023/05/10 00:29:16;;;;;;;2.78;1.05;;;;;;;26.92;37.96;99272.84;7401113;19;20007;-62
2023/05/10 00:31:42;;;;;;;0.35;0.35;;;;;;;26.89;37.77;99274.06;7396751;19;20022;-61
2023/05/10 00:34:08;;;;;;;1.13;0.75;;;;;;;26.81;37.85;99278.44;7393576;19;20014;-61
2023/05/10 00:36:35;;;;;;;0.70;0.38;;;;;;;26.76;37.99;99271.66;7396897;19;20010;-61
2023/05/10 00:39:03;;;;;;;1.38;0.75;;;;;;;26.86;38.24;99277.34;7399116;19;20459;-60
2023/05/10 00:41:32;;;;;;;2.85;1.20;;;;;;;26.77;38.44;99273.16;7398904;19;20034;-61
2023/05/10 00:44:00;;;;;;;3.25;0.88;;;;;;;26.68;37.92;99276.00;7394679;19;20084;-60
2023/05/10 00:46:26;;;;;;;0.40;0.40;;;;;;;26.60;38.19;99275.38;7396065;19;20070;-61
2023/05/10 00:48:53;;;;;;;0.38;0.38;;;;;;;26.54;37.87;99278.56;7398722;19;20474;-61
2023/05/10 00:51:19;;;;;;;10.73;0.65;;;;;;;26.36;38.15;99282.88;7397381;19;20070;-61
2023/05/10 00:53:46;;;;;;;3.35;1.10;;;;;;;26.36;38.01;99271.47;7393590;19;20017;-61
2023/05/10 00:56:12;;;;;;;0.20;0.20;;;;;;;26.31;37.57;99278.25;7395414;19;20030;-61
2023/05/10 00:58:42;;;;;;;0.32;0.32;;;;;;;25.64;38.47;99271.59;7397674;19;20114;-61
2023/05/10 01:01:09;;;;;;;2.15;0.52;;;;;;;26.32;37.97;99274.03;7399823;19;20011;-61
2023/05/10 01:03:36;;;;;;;2.13;0.55;;;;;;;26.24;37.81;99274.19;7397022;19;20045;-61
2023/05/10 01:06:03;;;;;;;3.60;0.57;;;;;;;26.19;37.15;99265.88;7398098;19;20471;-61
2023/05/10 01:08:29;;;;;;;0.98;0.50;;;;;;;26.28;37.52;99274.47;7397361;19;20029;-61
2023/05/10 01:10:56;;;;;;;12.38;1.25;;;;;;;26.06;37.34;99275.59;7396326;19;20014;-61
2023/05/10 01:13:37;;;;;;;1.55;0.70;;;;;;;26.14;37.51;99278.38;7394638;19;20635;-61
2023/05/10 01:16:04;;;;;;;5.25;1.02;;;;;;;26.19;37.51;99265.88;7394777;19;20010;-60
2023/05/10 01:18:34;;;;;;;0.28;0.28;;;;;;;26.23;37.40;99271.91;7397089;19;20020;-61
2023/05/10 01:21:27;;;;;;;1.52;0.75;;;;;;;17.26;47.37;99290.78;7395224;19;20015;-61
2023/05/10 01:24:16;;;;;;;0.55;0.55;;;;;;;9.16;100.00;99302.31;7393627;19;20018;-61
2023/05/10 01:27:20;;;;;;;0.98;0.88;;;;;;;7.26;100.00;99308.34;7395191;19;20346;-61
2023/05/10 01:30:02;;;;;;;0.50;0.50;;;;;;;6.60;100.00;99313.72;7393119;19;20019;-61
2023/05/10 01:32:34;;;;;;;1.95;1.10;;;;;;;7.07;100.00;99301.34;7392454;19;20015;-61
2023/05/10 01:35:14;;;;;;;4.68;1.63;;;;;;;7.60;100.00;99314.22;7392705;19;20014;-61
2023/05/10 01:37:52;;;;;;;0.50;0.40;;;;;;;7.71;100.00;99310.19;7391676;19;20113;-61
2023/05/10 01:40:32;;;;;;;4.70;1.50;;;;;;;7.62;100.00;99306.22;7398033;19;20354;-61
2023/05/10 01:43:02;;;;;;;0.90;0.73;;;;;;;7.55;100.00;99314.88;7393634;19;20015;-61
2023/05/10 01:45:33;;;;;;;1.45;0.85;;;;;;;7.44;100.00;99309.06;7394313;19;20027;-61
2023/05/10 01:48:09;;;;;;;;;;;;;;;7.40;100.00;99308.47;7400139;19;20094;-61
2023/05/10 01:50:39;;;;;;;0.80;0.80;;;;;;;6.28;100.00;99311.53;7392654;19;19931;-62
2023/05/10 01:53:10;;;;;;;1.08;0.52;;;;;;;6.28;100.00;99319.06;7393134;19;20022;-61
2023/05/10 01:55:45;;;;;;;6.53;0.93;;;;;;;6.45;100.00;99314.78;7390785;19;20011;-61
2023/05/10 01:58:20;;;;;;;2.55;0.88;;;;;;;6.22;100.00;99315.38;7393895;19;20014;-61
2023/05/10 02:00:48;;;;;;;14.35;1.30;;;;;;;6.33;100.00;99316.47;7393943;19;20010;-61
2023/05/10 02:03:17;;;;;;;1.25;1.15;;;;;;;6.31;100.00;99312.59;7397234;19;20490;-61
2023/05/10 02:05:45;;;;;;;0.98;0.95;;;;;;;6.53;100.00;99310.47;7394547;19;20011;-61
2023/05/10 02:08:14;;;;;;;1.13;1.05;;;;;;;6.51;100.00;99322.00;7394263;19;20034;-61
2023/05/10 02:10:42;;;;;;;0.77;0.73;;;;;;;6.32;100.00;99314.94;7391834;19;20506;-61
2023/05/10 02:13:11;;;;;;;8.23;0.90;;;;;;;6.35;100.00;99318.75;7393850;19;20459;-61
2023/05/10 02:15:40;;;;;;;0.40;0.40;;;;;;;6.42;100.00;99330.28;7393587;19;20010;-62
2023/05/10 02:18:07;;;;;;;0.75;0.45;;;;;;;6.22;100.00;99338.25;7398897;19;20014;-61
2023/05/10 02:20:35;;;;;;;10.77;1.63;;;;;;;6.33;100.00;99335.03;7394256;19;20023;-61
2023/05/10 02:23:03;;;;;;;5.07;0.85;;;;;;;6.99;100.00;99334.13;7392733;19;20010;-61
2023/05/10 02:25:31;;;;;;;0.90;0.90;;;;;;;6.72;100.00;99329.38;7397814;19;20463;-61
2023/05/10 02:27:59;;;;;;;0.80;0.80;;;;;;;7.42;100.00;99339.25;7398356;19;20011;-61
2023/05/10 02:30:26;;;;;;;0.75;0.75;;;;;;;7.21;100.00;99337.44;7393764;19;20072;-61
2023/05/10 02:32:53;;;;;;;5.82;0.88;;;;;;;17.86;100.00;99314.38;7391117;19;20011;-61
2023/05/10 02:35:20;;;;;;;2.97;0.88;;;;;;;9.20;100.00;99331.91;7391423;19;20357;-61
2023/05/10 02:37:47;;;;;;;2.58;2.08;;;;;;;7.50;100.00;99337.69;7392835;19;20070;-61
2023/05/10 02:40:16;;;;;;;0.75;0.75;;;;;;;7.03;100.00;99337.50;7392758;19;20078;-61
2023/05/10 02:42:44;;;;;;;1.00;0.50;;;;;;;6.65;100.00;99337.19;7392310;19;20038;-62
2023/05/10 02:45:13;;;;;;;1.48;0.45;;;;;;;6.95;100.00;99341.81;7391959;19;20010;-61
2023/05/10 02:47:39;;;;;;;0.70;0.70;;;;;;;8.78;100.00;99330.16;7395066;19;20043;-61
2023/05/10 02:50:07;;;;;;;2.47;0.57;;;;;;;6.79;100.00;99334.59;7393523;19;20450;-61
2023/05/10 02:52:42;;;;;;;4.90;1.05;;;;;;;9.25;100.00;99334.03;7393231;19;20035;-61
2023/05/10 02:55:11;;;;;;;1.35;1.20;;;;;;;6.58;100.00;99340.28;7392863;19;20139;-63
2023/05/10 02:57:48;;;;;;;0.70;0.68;;;;;;;6.83;100.00;99340.75;7389644;19;20086;-63
2023/05/10 03:00:15;;;;;;;1.00;1.00;;;;;;;9.41;100.00;99337.09;7394894;19;20018;-63
2023/05/10 03:02:41;;;;;;;2.63;0.60;;;;;;;21.94;73.90;99314.97;7392729;19;20014;-63
2023/05/10 03:05:08;;;;;;;1.45;1.00;;;;;;;24.25;57.67;99305.78;7392079;19;20014;-63
2023/05/10 03:07:35;;;;;;;0.20;0.20;;;;;;;25.28;51.74;99312.19;7391099;19;20010;-63
2023/05/10 03:10:02;;;;;;;0.38;0.38;;;;;;;26.10;47.87;99309.44;7392277;19;20011;-63
2023/05/10 03:12:45;;;;;;;2.97;1.02;;;;;;;26.44;45.46;99312.06;7394751;19;20034;-64
2023/05/10 03:15:19;;;;;;;0.20;0.20;;;;;;;26.49;44.29;99311.00;7392805;19;20007;-63
2023/05/10 03:17:48;;;;;;;2.67;1.30;;;;;;;26.81;43.13;99302.03;7397149;19;20094;-63
2023/05/10 03:20:29;;;;;;;0.32;0.32;;;;;;;26.85;41.89;99313.78;7389611;19;20011;-63
2023/05/10 03:23:05;;;;;;;0.55;0.55;;;;;;;27.40;40.02;99312.03;7397735;19;20018;-63
2023/05/10 03:25:32;;;;;;;0.40;0.40;;;;;;;27.70;39.15;99314.94;7400391;19;20018;-64
2023/05/10 03:28:01;;;;;;;0.85;0.60;;;;;;;27.86;38.09;99303.91;7398733;19;20011;-64
2023/05/10 03:30:28;;;;;;;1.50;0.75;;;;;;;27.99;37.86;99305.50;7398658;19;20014;-65
2023/05/10 03:32:54;;;;;;;1.70;1.60;;;;;;;27.83;37.17;99299.38;7403252;19;20336;-64
2023/05/10 03:35:20;;;;;;;1.52;0.85;;;;;;;27.76;36.92;99301.06;7398261;19;20019;-64
2023/05/10 03:37:47;;;;;;;0.82;0.77;;;;;;;26.73;37.79;99300.66;7399751;19;20010;-64
2023/05/10 03:40:13;;;;;;;3.08;1.17;;;;;;;26.20;38.30;99301.66;7400192;19;20088;-63
2023/05/10 03:42:41;;;;;;;1.48;1.02;;;;;;;26.62;37.92;99307.72;7401257;19;20014;-63
2023/05/10 03:45:09;;;;;;;0.60;0.60;;;;;;;27.25;36.40;99306.63;7401556;19;20375;-64
2023/05/10 03:47:35;;;;;;;0.32;0.30;;;;;;;27.07;36.87;99305.31;7400654;19;20022;-64
2023/05/10 03:50:02;;;;;;;1.27;0.60;;;;;;;26.85;36.95;99308.06;7402204;19;20006;-66
2023/05/10 03:52:28;;;;;;;0.90;0.85;;;;;;;27.09;36.94;99303.38;7397840;19;20018;-65
2023/05/10 03:54:55;;;;;;;2.95;1.58;;;;;;;27.41;36.73;99316.41;7397791;19;20427;-65
2023/05/10 03:57:23;;;;;;;0.75;0.75;;;;;;;27.52;36.52;99310.06;7397376;19;20030;-64
2023/05/10 03:59:49;;;;;;;8.55;0.88;;;;;;;27.81;36.13;99302.09;7402862;19;20026;-66
2023/05/10 04:02:15;;;;;;;1.80;1.00;;;;;;;28.07;36.26;99301.09;7400121;19;20360;-65
2023/05/10 04:04:41;;;;;;;2.72;0.77;;;;;;;28.05;36.11;99300.97;7398845;19;20018;-65
2023/05/10 04:07:09;;;;;;;5.15;0.70;;;;;;;13.57;79.09;99333.84;7397046;19;20011;-65
2023/05/10 04:09:35;;;;;;;1.85;0.88;;;;;;;23.97;55.10;99309.81;7401912;19;20349;-64
2023/05/10 04:12:02;;;;;;;3.28;0.68;;;;;;;26.89;43.15;99305.50;7398758;19;20090;-64
2023/05/10 04:14:28;;;;;;;0.65;0.65;;;;;;;27.41;41.17;99302.13;7396752;19;20010;-65
2023/05/10 04:16:55;;;;;;;8.25;2.65;;;;;;;27.76;39.66;99300.34;7400924;19;20007;-65
2023/05/10 04:19:21;;;;;;;2.03;0.95;;;;;;;27.88;39.03;99306.91;7400474;19;20465;-64
2023/05/10 04:21:47;;;;;;;7.25;1.15;;;;;;;28.66;37.85;99303.00;7397419;19;20025;-64
2023/05/10 04:24:14;;;;;;;0.98;0.85;;;;;;;29.01;36.48;99297.41;7398013;19;20013;-64
2023/05/10 04:26:40;;;;;;;1.35;0.82;;;;;;;29.18;35.91;99311.44;7401259;19;20517;-64
2023/05/10 04:29:06;;;;;;;0.65;0.60;;;;;;;29.41;35.75;99305.75;7400426;19;20018;-64
2023/05/10 04:31:32;;;;;;;2.45;1.08;;;;;;;29.52;35.56;99310.03;7397547;19;20010;-64
2023/05/10 04:33:58;;;;;;;1.20;1.20;;;;;;;28.98;36.10;99315.84;7394678;19;20025;-64
2023/05/10 04:36:24;;;;;;;2.20;1.10;;;;;;;29.33;35.18;99313.84;7397416;19;20022;-64
2023/05/10 04:38:51;;;;;;;0.95;0.90;;;;;;;29.35;35.69;99316.09;7399468;19;20006;-64
2023/05/10 04:41:17;;;;;;;1.70;0.55;;;;;;;29.62;35.12;99314.28;7397812;19;20010;-64
2023/05/10 04:43:43;;;;;;;1.23;1.13;;;;;;;29.79;34.97;99308.22;7397371;19;20015;-64
2023/05/10 04:46:09;;;;;;;0.70;0.70;;;;;;;29.93;34.40;99303.34;7397520;19;20019;-64
2023/05/10 04:48:35;;;;;;;3.25;1.05;;;;;;;29.77;34.06;99307.34;7399122;19;20010;-64
2023/05/10 04:51:03;;;;;;;1.10;1.00;;;;;;;29.88;34.38;99306.59;7397662;19;20010;-64
2023/05/10 04:53:29;;;;;;;3.20;0.57;;;;;;;29.87;33.55;99305.09;7396484;19;20010;-64
2023/05/10 04:55:56;;;;;;;3.20;1.00;;;;;;;29.77;33.90;99313.09;7396670;19;20007;-64
2023/05/10 04:58:22;;;;;;;2.45;1.17;;;;;;;29.93;33.40;99309.09;7396677;19;20014;-64
2023/05/10 05:00:48;;;;;;;8.88;1.27;;;;;;;29.92;33.35;99307.59;7400894;19;20011;-64
2023/05/10 05:03:14;;;;;;;0.95;0.55;;;;;;;29.73;33.26;99307.81;7396951;19;20018;-64
2023/05/10 05:05:40;;;;;;;2.40;0.65;;;;;;;29.62;33.23;99308.56;7395783;19;20397;-64
2023/05/10 05:08:06;;;;;;;3.83;0.93;;;;;;;29.51;33.27;99303.53;7396072;19;20011;-64
2023/05/10 05:10:33;;;;;;;5.72;0.77;;;;;;;29.35;33.51;99311.13;7396940;19;20007;-64
2023/05/10 05:12:59;;;;;;;0.77;0.70;;;;;;;29.42;33.32;99313.00;7399263;19;20018;-64
2023/05/10 05:15:25;;;;;;;1.08;1.02;;;;;;;29.69;33.21;99307.53;7400944;19;20084;-64
2023/05/10 05:17:51;;;;;;;6.75;0.85;;;;;;;29.61;33.27;99306.28;7400511;19;20014;-64
2023/05/10 05:20:18;;;;;;;1.13;1.13;;;;;;;29.80;33.45;99312.56;7400922;19;20010;-64
2023/05/10 05:22:45;;;;;;;0.73;0.70;;;;;;;30.12;33.41;99313.84;7395881;19;20011;-63
2023/05/10 05:25:11;;;;;;;0.40;0.40;;;;;;;30.16;33.65;99314.06;7399695;19;20014;-64
2023/05/10 05:27:37;;;;;;;1.83;0.85;;;;;;;30.24;33.40;99308.06;7395611;19;20011;-64
2023/05/10 05:30:04;;;;;;;3.20;1.58;;;;;;;29.89;33.30;99326.06;7400248;19;20339;-65
2023/05/10 05:32:30;;;;;;;0.70;0.70;;;;;;;29.73;33.46;99330.03;7396002;19;20015;-65
2023/05/10 05:34:57;;;;;;;3.03;0.90;;;;;;;27.99;34.95;99340.63;7394394;19;20607;-65
2023/05/10 05:37:24;;;;;;;2.40;1.15;;;;;;;12.32;100.00;99369.28;7394547;19;20007;-64
2023/05/10 05:39:50;;;;;;;0.40;0.40;;;;;;;9.11;100.00;99375.22;7398885;19;20014;-64
2023/05/10 05:42:18;;;;;;;3.75;1.20;;;;;;;8.02;100.00;99382.72;7395724;19;20022;-64
2023/05/10 05:44:44;;;;;;;2.63;0.93;;;;;;;7.81;100.00;99383.75;7393020;19;20021;-64
2023/05/10 05:47:11;;;;;;;1.52;0.82;;;;;;;7.19;100.00;99381.44;7395682;19;20010;-64
2023/05/10 05:49:37;;;;;;;6.82;2.38;;;;;;;7.05;100.00;99373.78;7398342;19;20011;-64
2023/05/10 05:52:04;;;;;;;19.88;3.28;;;;;;;8.80;100.00;99372.06;7394919;19;20015;-64
2023/05/10 05:54:31;;;;;;;11.38;3.13;;;;;;;9.25;100.00;99370.16;7393219;19;20018;-64
2023/05/10 05:56:58;;;;;;;2.47;1.33;;;;;;;8.09;100.00;99374.06;7396884;19;20458;-64
2023/05/10 05:59:24;;;;;;;2.45;1.50;;;;;;;8.12;100.00;99368.34;7397450;19;20015;-64
2023/05/10 06:01:50;;;;;;;9.98;2.70;;;;;;;8.33;100.00;99372.13;7394381;19;20027;-64
2023/05/10 06:04:17;;;;;;;1.70;0.85;;;;;;;8.71;100.00;99366.59;7393506;19;20018;-64
2023/05/10 06:06:43;;;;;;;0.63;0.63;;;;;;;7.66;100.00;99380.88;7395244;19;20015;-64
2023/05/10 06:09:10;;;;;;;1.48;1.38;;;;;;;8.54;100.00;99387.69;7396174;19;20018;-64
2023/05/10 06:11:36;;;;;;;3.63;1.17;;;;;;;8.67;100.00;99382.66;7397208;19;20071;-64
2023/05/10 06:14:04;;;;;;;0.55;0.55;;;;;;;9.58;100.00;99377.03;7397123;19;20018;-64
2023/05/10 06:16:31;;;;;;;3.60;0.60;;;;;;;9.56;100.00;99382.31;7396547;19;20021;-64
2023/05/10 06:18:57;;;;;;;1.42;1.30;;;;;;;9.28;100.00;99374.72;7394424;19;20011;-64
2023/05/10 06:21:23;;;;;;;2.67;0.75;;;;;;;8.43;100.00;99381.91;7399356;19;20015;-62
2023/05/10 06:23:49;;;;;;;1.58;1.42;;;;;;;9.58;100.00;99379.03;7393373;19;20363;-62
2023/05/10 06:26:15;;;;;;;4.35;1.73;;;;;;;9.67;100.00;99376.16;7393502;19;20022;-62
2023/05/10 06:28:41;;;;;;;1.98;1.75;;;;;;;10.48;100.00;99372.31;7393883;19;20019;-62
2023/05/10 06:31:08;;;;;;;3.97;1.48;;;;;;;10.09;100.00;99373.03;7398080;19;20463;-62
2023/05/10 06:33:35;;;;;;;6.90;1.15;;;;;;;10.29;100.00;99370.28;7393016;19;20015;-62
2023/05/10 06:36:01;;;;;;;0.88;0.88;;;;;;;9.56;100.00;99381.53;7395414;19;20007;-62
2023/05/10 06:38:27;;;;;;;2.60;1.00;;;;;;;11.08;100.00;99384.69;7397726;19;20334;-62
2023/05/10 06:40:54;;;;;;;6.03;1.35;;;;;;;10.49;100.00;99385.00;7396736;19;20031;-62
2023/05/10 06:43:20;;;;;;;2.80;1.80;;;;;;;10.32;100.00;99381.22;7393742;19;20395;-62
2023/05/10 06:45:47;;;;;;;3.90;1.38;;;;;;;10.56;100.00;99384.59;7393805;19;20459;-62
2023/05/10 06:48:14;;;;;;;3.30;0.93;;;;;;;10.87;100.00;99385.97;7392806;19;20014;-62
2023/05/10 06:50:40;;;;;;;6.90;1.50;;;;;;;11.03;100.00;99385.38;7392708;19;20006;-62
2023/05/10 06:53:06;;;;;;;12.82;2.05;;;;;;;11.16;100.00;99392.13;7392263;19;20038;-63
2023/05/10 06:55:32;;;;;;;2.95;1.02;;;;;;;11.60;100.00;99386.22;7393532;19;20037;-62
2023/05/10 06:57:58;;;;;;;4.68;1.02;;;;;;;12.36;100.00;99394.94;7403517;19;20042;-62
2023/05/10 07:00:25;;;;;;;3.25;1.63;;;;;;;12.29;100.00;99395.38;7402626;19;20010;-62
2023/05/10 07:02:51;;;;;;;7.28;1.88;;;;;;;12.43;100.00;99389.63;7400254;19;20011;-62
2023/05/10 07:05:18;;;;;;;11.90;1.92;;;;;;;12.53;100.00;99399.34;7400637;19;20011;-62
2023/05/10 07:07:44;;;;;;;7.07;0.90;;;;;;;13.29;100.00;99391.00;7399484;19;20018;-62
2023/05/10 07:10:10;;;;;;;5.03;0.95;;;;;;;12.88;100.00;99396.19;7401463;19;20015;-62
2023/05/10 07:12:36;;;;;;;2.85;1.02;;;;;;;13.41;100.00;99398.91;7400667;19;20015;-62
2023/05/10 07:15:03;;;;;;;3.25;0.95;;;;;;;13.64;100.00;99389.25;7399745;19;20011;-62
2023/05/10 07:17:29;;;;;;;1.60;0.88;;;;;;;13.55;100.00;99385.97;7404267;19;20108;-62
2023/05/10 07:19:55;;;;;;;0.98;0.80;;;;;;;13.63;100.00;99389.78;7399949;19;20021;-62
2023/05/10 07:22:21;;;;;;;3.40;1.10;;;;;;;14.75;100.00;99383.50;7404185;19;20025;-62
2023/05/10 07:24:48;;;;;;;0.30;0.30;;;;;;;14.55;100.00;99392.28;7399770;19;20015;-62
2023/05/10 07:27:14;;;;;;;1.17;1.05;;;;;;;16.49;100.00;99383.28;7399718;19;20019;-62
2023/05/10 07:29:40;;;;;;;1.77;1.02;;;;;;;15.66;100.00;99386.09;7400054;19;20011;-61
2023/05/10 07:32:06;;;;;;;2.15;1.05;;;;;;;22.90;100.00;99382.00;7402460;19;20006;-62
2023/05/10 07:34:32;;;;;;;0.20;0.20;;;;;;;25.63;86.86;99375.59;7397384;19;20018;-62
2023/05/10 07:36:59;;;;;;;1.10;0.57;;;;;;;24.79;87.90;99375.88;7401285;19;20014;-62
2023/05/10 07:39:26;;;;;;;2.65;1.00;;;;;;;22.84;100.00;99384.31;7400870;19;20019;-62
2023/05/10 07:41:53;;;;;;;5.90;0.82;;;;;;;22.54;100.00;99385.09;7398755;19;20019;-62
2023/05/10 07:44:20;;;;;;;0.20;0.20;;;;;;;29.35;63.44;99368.50;7401903;19;20015;-62
2023/05/10 07:46:47;;;;;;;0.80;0.55;;;;;;;30.70;54.24;99365.50;7401408;19;20006;-62
2023/05/10 07:49:13;;;;;;;0.57;0.40;;;;;;;29.96;52.76;99365.28;7399075;19;20014;-62
2023/05/10 07:51:40;;;;;;;4.15;0.85;;;;;;;32.30;48.44;99360.88;7398645;19;20014;-62
2023/05/10 07:54:06;;;;;;;1.52;0.52;;;;;;;32.45;46.15;99360.25;7400621;19;20007;-62
2023/05/10 07:56:32;;;;;;;1.88;0.45;;;;;;;23.30;59.60;99377.13;7398403;19;20033;-62
2023/05/10 07:59:00;;;;;;;1.45;0.20;;;;;;;30.11;55.88;99357.53;7399406;19;20477;-62
2023/05/10 08:01:26;;;;;;;0.30;0.30;;;;;;;31.35;49.04;99356.41;7402502;19;20031;-62
2023/05/10 08:03:53;;;;;;;0.65;0.30;;;;;;;31.74;46.46;99358.56;7397908;19;20507;-62
2023/05/10 08:06:20;;;;;;;1.10;0.52;;;;;;;32.13;44.83;99362.16;7398866;19;20015;-62
2023/05/10 08:08:49;;;;;;;1.20;0.40;;;;;;;32.98;42.95;99361.59;7396200;19;20078;-62
2023/05/10 08:11:16;;;;;;;1.75;0.80;;;;;;;33.73;40.72;99360.25;7397973;19;20011;-62
2023/05/10 08:13:43;;;;;;;0.80;0.28;;;;;;;34.03;39.76;99355.91;7398184;19;20011;-62
2023/05/10 08:16:10;;;;;;;2.03;1.20;;;;;;;34.29;38.83;99356.34;7399422;19;20515;-62
2023/05/10 08:18:37;;;;;;;2.33;0.22;;;;;;;34.33;38.64;99347.84;7402244;19;20015;-62
2023/05/10 08:21:03;;;;;;;1.38;0.88;;;;;;;34.25;38.27;99350.38;7398381;19;20500;-62
2023/05/10 08:23:30;;;;;;;2.50;0.95;;;;;;;34.70;37.46;99356.00;7399017;19;20003;-62
2023/05/10 08:25:56;;;;;;;0.35;0.30;;;;;;;34.81;36.83;99352.88;7398621;19;20494;-62
2023/05/10 08:28:22;;;;;;;0.57;0.17;;;;;;;34.87;35.91;99355.31;7397251;19;20014;-62
2023/05/10 08:30:49;;;;;;;0.10;0.10;;;;;;;34.99;35.12;99355.81;7398841;19;20022;-63
2023/05/10 08:33:18;;;;;;;1.27;0.28;;;;;;;35.02;35.17;99360.31;7397683;19;20018;-62
2023/05/10 08:35:44;;;;;;;0.88;0.15;;;;;;;34.90;34.87;99359.75;7398538;19;20466;-62
2023/05/10 08:38:11;;;;;;;0.55;0.30;;;;;;;34.79;34.60;99364.38;7399979;19;20014;-62
2023/05/10 08:40:37;;;;;;;0.57;0.30;;;;;;;34.63;34.91;99365.84;7399016;19;20121;-62
2023/05/10 08:43:08;;;;;;;4.60;1.08;;;;;;;34.75;34.09;99369.25;7396920;19;20439;-62
2023/05/10 08:45:40;;;;;;;1.17;0.52;;;;;;;34.83;33.73;99369.56;7397140;19;20058;-62
2023/05/10 08:48:07;;;;;;;1.85;0.57;;;;;;;34.70;34.02;99377.00;7402044;19;20022;-62
2023/05/10 08:50:36;;;;;;;16.13;0.57;;;;;;;34.89;33.93;99372.75;7397096;19;20014;-62
2023/05/10 08:53:11;;;;;;;0.65;0.43;;;;;;;34.74;33.89;99364.88;7396206;19;20038;-62
2023/05/10 08:55:38;;;;;;;6.28;0.30;;;;;;;34.44;34.81;99370.03;7399260;19;20507;-62
2023/05/10 08:58:05;;;;;;;1.42;0.55;;;;;;;28.73;39.04;99387.25;7396606;19;20018;-62
2023/05/10 09:00:33;;;;;;;0.80;0.55;;;;;;;17.07;100.00;99408.19;7396997;19;20338;-62
2023/05/10 09:03:00;;;;;;;0.50;0.43;;;;;;;16.15;100.00;99403.81;7396418;19;20067;-62
2023/05/10 09:05:27;;;;;;;0.30;0.17;;;;;;;31.81;49.49;99377.69;7401352;19;20339;-62
2023/05/10 09:07:53;;;;;;;0.40;0.30;;;;;;;33.76;40.63;99381.31;7396735;19;20006;-62
2023/05/10 09:10:20;;;;;;;1.40;0.38;;;;;;;34.37;38.29;99382.75;7397406;19;20014;-62
2023/05/10 09:12:48;;;;;;;0.20;0.20;;;;;;;34.72;37.67;99385.00;7395586;19;20014;-62
2023/05/10 09:15:19;;;;;;;3.95;0.80;;;;;;;35.17;36.57;99384.81;7400825;19;20014;-62
2023/05/10 09:17:47;;;;;;;0.50;0.35;;;;;;;35.18;35.92;99389.94;7401501;19;20018;-62
2023/05/10 09:20:13;;;;;;;0.35;0.20;;;;;;;35.49;35.73;99383.25;7395900;19;20011;-62
2023/05/10 09:22:39;;;;;;;0.40;0.40;;;;;;;35.97;34.76;99385.19;7396636;19;20037;-63
2023/05/10 09:25:11;;;;;;;4.55;0.70;;;;;;;36.11;34.31;99382.06;7397371;19;20022;-62
2023/05/10 09:27:39;;;;;;;0.45;0.35;;;;;;;36.40;34.81;99382.47;7394021;19;20025;-62
2023/05/10 09:30:07;;;;;;;1.05;0.35;;;;;;;36.80;34.45;99383.19;7394265;19;20324;-62
2023/05/10 09:32:44;;;;;;;8.30;0.85;;;;;;;37.04;34.28;99380.41;7395032;19;20014;-62
2023/05/10 09:35:19;;;;;;;0.88;0.47;;;;;;;36.92;33.53;99380.00;7397299;19;20026;-62
2023/05/10 09:37:50;;;;;;;1.08;0.57;;;;;;;36.70;33.02;99377.03;7393264;19;20018;-62
2023/05/10 09:40:18;;;;;;;0.38;0.38;;;;;;;36.50;32.79;99370.50;7394006;19;20025;-62
2023/05/10 09:43:02;;;;;;;2.30;0.85;;;;;;;36.24;32.84;99367.38;7394118;19;20035;-62
2023/05/10 09:45:30;;;;;;;3.40;0.40;;;;;;;35.63;33.34;99372.22;7397455;19;20015;-62
2023/05/10 09:47:58;;;;;;;0.47;0.25;;;;;;;35.67;33.68;99381.81;7397220;19;20047;-62
2023/05/10 09:50:25;;;;;;;1.45;0.15;;;;;;;35.92;33.51;99376.97;7394468;19;20014;-62
2023/05/10 09:52:58;;;;;;;0.15;0.15;;;;;;;35.92;33.49;99371.16;7393827;19;20018;-62
2023/05/10 09:55:44;;;;;;;2.83;0.20;;;;;;;36.25;33.01;99373.91;7399199;19;20014;-62
2023/05/10 09:58:11;;;;;;;0.75;0.75;;;;;;;36.27;32.75;99365.28;7395048;19;20347;-62
2023/05/10 10:00:42;;;;;;;0.10;0.10;;;;;;;36.34;32.74;99370.63;7394476;19;20013;-62
2023/05/10 10:03:17;;;;;;;0.80;0.45;;;;;;;36.20;32.76;99366.47;7395398;19;20014;-62
2023/05/10 10:05:44;;;;;;;0.55;0.30;;;;;;;36.45;32.81;99368.91;7398384;19;20018;-62
2023/05/10 10:08:12;;;;;;;0.45;0.20;;;;;;;36.56;32.16;99372.91;7393850;19;20038;-63
2023/05/10 10:10:40;;;;;;;1.48;0.30;;;;;;;36.54;31.95;99364.84;7395332;19;20075;-62
2023/05/10 10:13:07;;;;;;;0.30;0.30;;;;;;;36.71;32.02;99372.69;7394056;19;20034;-62
2023/05/10 10:15:34;;;;;;;0.25;0.22;;;;;;;36.70;31.38;99371.22;7397089;19;20055;-62
2023/05/10 10:18:01;;;;;;;1.33;0.57;;;;;;;37.26;31.38;99363.72;7394715;19;20010;-62
2023/05/10 10:20:28;;;;;;;0.47;0.30;;;;;;;37.34;30.89;99360.34;7393224;19;20018;-62
2023/05/10 10:22:54;;;;;;;2.05;0.38;;;;;;;37.61;30.58;99351.06;7392243;19;20006;-63
2023/05/10 10:25:24;;;;;;;0.20;0.20;;;;;;;37.25;30.45;99354.25;7397198;19;20010;-63
2023/05/10 10:27:53;;;;;;;0.30;0.17;;;;;;;37.28;30.56;99345.59;7393801;19;20104;-63
2023/05/10 10:30:32;;;;;;;0.15;0.13;;;;;;;36.99;30.87;99344.66;7392508;19;20351;-63
2023/05/10 10:33:36;;;;;;;0.40;0.22;;;;;;;37.97;29.97;99337.66;7392644;19;20066;-63
2023/05/10 10:36:03;;;;;;;1.30;0.32;;;;;;;37.54;29.98;99349.38;7392989;19;20014;-63
2023/05/10 10:39:00;;;;;;;0.95;0.20;;;;;;;37.59;29.32;99334.31;7395174;19;20018;-63
2023/05/10 10:41:35;;;;;;;0.38;0.30;;;;;;;37.66;29.65;99341.06;7393575;19;20014;-62
2023/05/10 10:44:25;;;;;;;0.30;0.20;;;;;;;37.73;30.11;99337.63;7393501;19;20339;-63
2023/05/10 10:47:29;;;;;;;0.17;0.10;;;;;;;37.64;29.40;99335.91;7391351;19;20019;-63
2023/05/10 10:50:06;;;;;;;3.40;0.10;;;;;;;37.21;29.40;99338.84;7389349;19;20018;-63
2023/05/10 10:52:38;;;;;;;1.17;0.65;;;;;;;37.31;29.81;99338.44;7390510;19;20015;-62
2023/05/10 10:55:09;;;;;;;0.47;0.45;;;;;;;37.15;29.81;99335.75;7390570;19;20018;-62
2023/05/10 10:57:46;;;;;;;0.10;0.00;;;;;;;37.22;29.50;99340.34;7390394;19;20018;-62
2023/05/10 11:00:30;;;;;;;0.40;0.25;;;;;;;37.11;29.69;99350.91;7389798;19;20030;-63
2023/05/10 11:03:06;;;;;;;0.17;0.10;;;;;;;36.73;29.85;99354.63;7389792;19;20066;-62
2023/05/10 11:05:37;;;;;;;0.10;0.00;;;;;;;36.56;29.88;99359.09;7393257;19;20033;-63
2023/05/10 11:08:11;;;;;;;6.82;0.50;;;;;;;36.01;30.59;99358.50;7389972;19;20010;-63
2023/05/10 11:10:38;;;;;;;5.68;0.47;;;;;;;36.07;30.70;99355.81;7389823;19;20015;-63
2023/05/10 11:13:09;;;;;;;0.20;0.10;;;;;;;36.18;31.13;99361.34;7389439;19;20011;-63
2023/05/10 11:15:38;;;;;;;8.85;0.30;;;;;;;36.17;31.82;99356.22;7394902;19;20025;-63
2023/05/10 11:18:20;;;;;;;0.10;0.10;;;;;;;36.46;32.45;99352.97;7390323;19;20019;-63
2023/05/10 11:20:51;;;;;;;0.20;0.00;;;;;;;36.39;33.50;99351.22;7389993;19;20015;-63
2023/05/10 11:23:19;;;;;;;1.63;0.30;;;;;;;37.40;33.27;99348.94;7392076;19;20416;-63
2023/05/10 11:25:48;;;;;;;0.85;0.30;;;;;;;37.82;33.56;99344.47;7392674;19;20010;-63
2023/05/10 11:28:17;;;;;;;0.17;0.15;;;;;;;37.93;33.26;99344.09;7390377;19;20014;-63
2023/05/10 11:30:45;;;;;;;7.13;1.05;;;;;;;37.54;32.86;99344.31;7389980;19;20014;-63
2023/05/10 11:33:17;;;;;;;1.00;0.10;;;;;;;33.25;37.16;99340.56;7390691;19;20021;-63
2023/05/10 11:35:50;;;;;;;0.10;0.10;;;;;;;23.50;68.30;99349.78;7391228;19;20473;-63
2023/05/10 11:40:53;;;;;;;0.13;0.10;;;;;;;16.17;100.00;99354.25;7390766;19;20010;-89